Time;durP1;ratioP1;P1;durP2;ratioP2;P2;SDS_P1;SDS_P2;PMS_P1;PMS_P2;Temp;Humidity;BMP_temperature;BMP_pressure;BME280_temperature;BME280_humidity;BME280_pressure;Samples;Min_cycle;Max_cycle;Signal;HPM_P1;HPM_P2
2022/10/20 00:02:19;;;;;;;6.88;2.92;;;;;;;;;;5031987;28;20444;-71
2022/10/20 00:04:49;;;;;;;8.85;3.33;;;;;;;;;;5031627;28;20057;-71
2022/10/20 00:07:19;;;;;;;6.30;2.97;;;;;;;;;;5031878;28;20057;-70
2022/10/20 00:09:50;;;;;;;8.02;3.65;;;;;;;;;;5031704;28;20053;-70
2022/10/20 00:12:22;;;;;;;8.23;4.32;;;;;;;;;;5031700;28;20064;-75
2022/10/20 00:14:53;;;;;;;6.25;3.08;;;;;;;;;;5031002;28;20065;-73
2022/10/20 00:17:43;;;;;;;9.45;2.92;;;;;;;;;;5031605;28;20049;-71
2022/10/20 00:20:14;;;;;;;5.65;3.08;;;;;;;;;;5031168;28;20056;-72
2022/10/20 00:22:45;;;;;;;8.10;2.95;;;;;;;;;;5031416;28;20053;-72
2022/10/20 00:25:15;;;;;;;8.48;3.25;;;;;;;;;;4997985;28;20092;-68
2022/10/20 00:27:45;;;;;;;8.45;2.90;;;;;;;;;;5031670;28;20057;-59
2022/10/20 00:30:15;;;;;;;7.85;2.65;;;;;;;;;;4999143;28;20058;-58
2022/10/20 00:32:50;;;;;;;4.57;1.33;;;;;;;;;;5042001;28;20417;-59
2022/10/20 00:35:20;;;;;;;5.25;1.25;;;;;;;;;;5035107;28;20052;-60
2022/10/20 00:37:50;;;;;;;3.85;1.13;;;;;;;;;;5037488;28;20053;-60
2022/10/20 00:40:20;;;;;;;2.53;0.70;;;;;;;;;;5037334;28;20484;-61
2022/10/20 00:42:50;;;;;;;2.08;0.80;;;;;;;;;;5020786;28;20053;-61
2022/10/20 00:45:21;;;;;;;1.48;0.65;;;;;;;;;;5070862;28;20060;-60
2022/10/20 00:47:55;;;;;;;1.20;0.50;;;;;;;;;;5070986;28;20404;-60
2022/10/20 00:50:31;;;;;;;1.38;0.63;;;;;;;;;;5070585;28;20068;-59
2022/10/20 00:53:01;;;;;;;2.38;0.65;;;;;;;;;;5053848;28;20048;-61
2022/10/20 00:55:35;;;;;;;2.70;1.02;;;;;;;;;;5070582;28;20049;-60
2022/10/20 00:58:05;;;;;;;3.67;0.63;;;;;;;;;;5077169;28;20052;-60
2022/10/20 01:00:39;;;;;;;1.48;0.60;;;;;;;;;;5113290;28;20048;-61
2022/10/20 01:03:15;;;;;;;2.13;0.73;;;;;;;;;;5078937;28;20411;-61
2022/10/20 01:05:45;;;;;;;0.88;0.20;;;;;;;;;;5113155;28;20052;-62
2022/10/20 01:08:15;;;;;;;1.15;0.47;;;;;;;;;;5113482;28;20043;-62
2022/10/20 01:11:20;;;;;;;2.78;0.77;;;;;;;;;;5113357;28;20048;-63
2022/10/20 01:14:07;;;;;;;1.75;0.88;;;;;;;;;;5113418;28;20044;-63
2022/10/20 01:17:07;;;;;;;3.55;1.15;;;;;;;;;;5113275;28;20050;-64
2022/10/20 01:19:40;;;;;;;3.03;1.00;;;;;;;;;;5077243;28;20056;-63
2022/10/20 01:22:42;;;;;;;4.95;0.93;;;;;;;;;;5110607;28;20051;-64
2022/10/20 01:25:18;;;;;;;1.23;0.70;;;;;;;;;;5060190;28;20058;-64
2022/10/20 01:27:58;;;;;;;4.72;1.30;;;;;;;;;;5110624;28;20055;-64
2022/10/20 01:30:29;;;;;;;2.30;0.80;;;;;;;;;;5110595;28;20055;-65
2022/10/20 01:33:20;;;;;;;4.88;1.10;;;;;;;;;;5110741;28;20047;-64
2022/10/20 01:36:03;;;;;;;3.45;1.23;;;;;;;;;;5110603;28;20558;-64
2022/10/20 01:38:46;;;;;;;2.47;1.15;;;;;;;;;;5093406;28;20059;-65
2022/10/20 01:41:45;;;;;;;3.08;1.67;;;;;;;;;;5076567;28;20055;-65
2022/10/20 01:44:20;;;;;;;2.90;1.13;;;;;;;;;;5029895;28;20060;-65
2022/10/20 01:46:51;;;;;;;3.33;1.00;;;;;;;;;;5029978;28;20169;-65
2022/10/20 01:49:24;;;;;;;2.45;1.02;;;;;;;;;;4996905;28;20054;-65
2022/10/20 01:51:55;;;;;;;3.28;1.20;;;;;;;;;;4981335;28;20068;-66
2022/10/20 01:54:28;;;;;;;2.78;1.27;;;;;;;;;;5029277;28;20064;-65
2022/10/20 01:57:01;;;;;;;2.38;1.08;;;;;;;;;;5032986;28;20057;-65
2022/10/20 01:59:43;;;;;;;2.20;1.10;;;;;;;;;;5000418;28;20061;-65
2022/10/20 02:02:19;;;;;;;3.25;0.82;;;;;;;;;;5049658;28;20057;-66
2022/10/20 02:05:21;;;;;;;2.70;1.27;;;;;;;;;;5049733;28;20041;-66
2022/10/20 02:07:57;;;;;;;6.93;1.52;;;;;;;;;;5049574;28;20057;-66
2022/10/20 02:10:39;;;;;;;1.80;0.88;;;;;;;;;;5049699;28;20053;-66
2022/10/20 02:13:11;;;;;;;3.38;1.20;;;;;;;;;;5049676;28;20053;-66
2022/10/20 02:15:56;;;;;;;4.53;0.73;;;;;;;;;;5049456;28;20416;-66
2022/10/20 02:18:40;;;;;;;2.53;0.98;;;;;;;;;;5029494;28;20066;-66
2022/10/20 02:21:11;;;;;;;4.53;1.23;;;;;;;;;;5059027;28;20052;-66
2022/10/20 02:23:45;;;;;;;4.10;1.20;;;;;;;;;;4991945;28;20415;-66
2022/10/20 02:26:18;;;;;;;3.10;0.95;;;;;;;;;;5040630;28;20052;-66
2022/10/20 02:29:00;;;;;;;3.83;1.48;;;;;;;;;;5089842;28;20048;-66
2022/10/20 02:31:31;;;;;;;3.63;1.20;;;;;;;;;;4994677;28;20527;-66
2022/10/20 02:34:03;;;;;;;5.03;1.33;;;;;;;;;;5007599;28;20419;-67
2022/10/20 02:36:38;;;;;;;4.60;1.27;;;;;;;;;;5089268;28;20060;-67
2022/10/20 02:39:09;;;;;;;6.95;1.50;;;;;;;;;;5089598;28;20423;-66
2022/10/20 02:41:40;;;;;;;2.80;1.13;;;;;;;;;;5089402;28;20060;-66
2022/10/20 02:44:10;;;;;;;5.28;1.25;;;;;;;;;;5089607;28;20415;-67
2022/10/20 02:46:39;;;;;;;3.25;1.23;;;;;;;;;;5089457;28;20055;-67
2022/10/20 02:49:09;;;;;;;3.63;1.25;;;;;;;;;;5089485;28;20064;-68
2022/10/20 02:51:39;;;;;;;3.30;1.20;;;;;;;;;;5089476;28;20483;-69
2022/10/20 02:54:09;;;;;;;3.03;0.90;;;;;;;;;;5089542;28;20063;-67
2022/10/20 02:56:39;;;;;;;2.55;0.90;;;;;;;;;;5033489;28;20048;-66
2022/10/20 02:59:13;;;;;;;2.20;0.90;;;;;;;;;;5076028;28;20052;-67
2022/10/20 03:01:43;;;;;;;3.33;1.70;;;;;;;;;;5111694;28;20500;-66
2022/10/20 03:04:14;;;;;;;3.58;1.13;;;;;;;;;;5093625;28;20496;-65
2022/10/20 03:06:44;;;;;;;1.88;0.90;;;;;;;;;;5114123;28;20051;-65
2022/10/20 03:09:14;;;;;;;3.00;1.02;;;;;;;;;;5059261;28;20055;-65
2022/10/20 03:11:44;;;;;;;3.13;0.98;;;;;;;;;;5060052;28;20518;-61
2022/10/20 03:14:14;;;;;;;3.55;0.82;;;;;;;;;;5076034;28;20071;-62
2022/10/20 03:16:44;;;;;;;2.10;0.98;;;;;;;;;;5075872;28;20491;-60
2022/10/20 03:19:14;;;;;;;1.73;0.82;;;;;;;;;;5092948;28;20527;-60
2022/10/20 03:21:45;;;;;;;5.28;1.05;;;;;;;;;;5076303;28;20063;-61
2022/10/20 03:24:16;;;;;;;4.97;0.77;;;;;;;;;;5093010;28;20059;-62
2022/10/20 03:26:46;;;;;;;3.30;1.13;;;;;;;;;;5075434;28;20056;-61
2022/10/20 03:29:16;;;;;;;2.55;0.90;;;;;;;;;;5092834;28;20051;-61
2022/10/20 03:31:47;;;;;;;1.58;0.73;;;;;;;;;;5075645;28;20714;-62
2022/10/20 03:34:22;;;;;;;5.05;1.00;;;;;;;;;;5060599;28;20056;-62
2022/10/20 03:36:52;;;;;;;3.03;0.93;;;;;;;;;;5092494;28;20465;-61
2022/10/20 03:39:22;;;;;;;3.38;1.20;;;;;;;;;;5092516;28;20044;-61
2022/10/20 03:41:54;;;;;;;2.75;1.45;;;;;;;;;;5092464;28;20388;-61
2022/10/20 03:44:25;;;;;;;4.03;0.95;;;;;;;;;;5092554;28;20403;-61
2022/10/20 03:46:54;;;;;;;3.90;1.02;;;;;;;;;;5093822;28;20514;-60
2022/10/20 03:49:24;;;;;;;3.53;1.23;;;;;;;;;;5115268;28;20044;-61
2022/10/20 03:51:54;;;;;;;1.77;0.73;;;;;;;;;;5115175;28;20044;-60
2022/10/20 03:54:24;;;;;;;1.23;0.52;;;;;;;;;;5095929;28;20048;-61
2022/10/20 03:56:54;;;;;;;1.92;0.60;;;;;;;;;;5045526;28;20044;-61
2022/10/20 03:59:24;;;;;;;3.20;0.82;;;;;;;;;;5114901;28;20043;-62
2022/10/20 04:01:59;;;;;;;1.92;0.80;;;;;;;;;;5095591;28;20063;-61
2022/10/20 04:04:29;;;;;;;2.40;0.73;;;;;;;;;;5061931;28;20074;-61
2022/10/20 04:06:59;;;;;;;1.60;0.73;;;;;;;;;;5078565;28;20410;-62
2022/10/20 04:09:30;;;;;;;1.38;0.63;;;;;;;;;;5114817;28;20048;-60
2022/10/20 04:12:00;;;;;;;1.33;0.45;;;;;;;;;;5114577;28;20047;-60
2022/10/20 04:14:30;;;;;;;2.20;0.77;;;;;;;;;;5114545;28;20047;-60
2022/10/20 04:16:59;;;;;;;1.40;0.50;;;;;;;;;;5114213;28;20052;-60
2022/10/20 04:19:29;;;;;;;1.30;0.60;;;;;;;;;;5095836;28;20056;-61
2022/10/20 04:22:00;;;;;;;1.52;0.63;;;;;;;;;;5095375;28;20048;-64
2022/10/20 04:24:30;;;;;;;2.30;0.60;;;;;;;;;;5078564;28;20056;-61
2022/10/20 04:27:00;;;;;;;1.77;0.90;;;;;;;;;;5095231;28;20052;-61
2022/10/20 04:29:30;;;;;;;1.25;0.60;;;;;;;;;;5095113;28;20506;-62
2022/10/20 04:32:00;;;;;;;4.93;0.63;;;;;;;;;;5114487;28;20494;-60
2022/10/20 04:34:30;;;;;;;3.30;0.55;;;;;;;;;;5114240;28;20050;-62
2022/10/20 04:37:00;;;;;;;2.45;2.00;;;;;;;;;;5078317;28;20411;-62
2022/10/20 04:39:30;;;;;;;1.20;0.50;;;;;;;;;;5078870;28;20109;-61
2022/10/20 04:42:00;;;;;;;2.83;0.55;;;;;;;;;;5114155;28;20471;-61
2022/10/20 04:44:31;;;;;;;1.73;0.43;;;;;;;;;;5094830;28;20047;-63
2022/10/20 04:47:01;;;;;;;1.02;0.50;;;;;;;;;;5114111;28;20376;-61
2022/10/20 04:49:30;;;;;;;1.23;0.50;;;;;;;;;;5028882;28;20506;-61
2022/10/20 04:52:00;;;;;;;0.88;0.40;;;;;;;;;;5113687;28;20047;-62
2022/10/20 04:54:30;;;;;;;2.15;0.60;;;;;;;;;;5094635;28;20055;-61
2022/10/20 04:57:01;;;;;;;1.20;0.50;;;;;;;;;;5090881;28;20436;-62
2022/10/20 04:59:30;;;;;;;1.92;0.75;;;;;;;;;;5090809;28;20064;-63
2022/10/20 05:02:00;;;;;;;1.40;0.45;;;;;;;;;;5090941;28;20056;-62
2022/10/20 05:04:30;;;;;;;1.05;0.60;;;;;;;;;;5090857;28;20055;-61
2022/10/20 05:07:00;;;;;;;1.02;0.50;;;;;;;;;;5090808;28;20075;-61
2022/10/20 05:09:31;;;;;;;3.92;0.68;;;;;;;;;;5057166;28;20071;-64
2022/10/20 05:12:02;;;;;;;1.05;0.68;;;;;;;;;;5056798;28;20052;-61
2022/10/20 05:14:32;;;;;;;1.98;0.55;;;;;;;;;;5023750;28;20064;-63
2022/10/20 06:16:50;;;;;;;1.02;0.60;;;;;;;;;;5112686;28;20044;-64
2022/10/20 06:19:22;;;;;;;0.75;0.50;;;;;;;;;;5076495;28;20494;-64
2022/10/20 06:21:53;;;;;;;0.35;0.30;;;;;;;;;;5076070;28;20063;-64
2022/10/20 06:24:23;;;;;;;0.77;0.50;;;;;;;;;;5059321;28;20055;-64
2022/10/20 06:26:53;;;;;;;1.13;0.50;;;;;;;;;;5109974;28;20048;-64
2022/10/20 06:29:23;;;;;;;2.55;0.40;;;;;;;;;;5042595;28;20062;-64
2022/10/20 06:31:55;;;;;;;0.65;0.35;;;;;;;;;;5020218;28;20048;-64
2022/10/20 06:34:26;;;;;;;1.00;0.50;;;;;;;;;;5052900;28;20519;-64
2022/10/20 06:36:56;;;;;;;0.40;0.25;;;;;;;;;;5069232;28;20056;-64
2022/10/20 06:39:25;;;;;;;0.40;0.32;;;;;;;;;;5070928;28;20432;-66
2022/10/20 06:41:55;;;;;;;0.77;0.40;;;;;;;;;;5073296;28;20408;-64
2022/10/20 06:44:31;;;;;;;1.05;0.40;;;;;;;;;;5073025;28;20052;-64
2022/10/20 06:47:06;;;;;;;1.40;0.52;;;;;;;;;;5073287;28;20060;-64
2022/10/20 06:49:36;;;;;;;0.52;0.43;;;;;;;;;;5073238;28;20508;-64
2022/10/20 06:52:06;;;;;;;0.60;0.38;;;;;;;;;;5073072;28;20059;-64
2022/10/20 06:54:41;;;;;;;1.45;0.45;;;;;;;;;;5025541;28;20056;-64
2022/10/20 06:57:11;;;;;;;0.57;0.35;;;;;;;;;;5084965;28;20048;-64
2022/10/20 06:59:42;;;;;;;0.60;0.25;;;;;;;;;;5076217;28;20052;-64
2022/10/20 07:02:12;;;;;;;0.70;0.47;;;;;;;;;;5059432;28;20063;-64
2022/10/20 07:04:42;;;;;;;1.10;0.60;;;;;;;;;;5042652;28;20412;-65
2022/10/20 07:07:12;;;;;;;2.17;0.50;;;;;;;;;;5042746;28;20492;-64
2022/10/20 07:09:42;;;;;;;0.75;0.47;;;;;;;;;;5106176;28;20055;-65
2022/10/20 07:12:12;;;;;;;2.10;0.60;;;;;;;;;;5079880;28;20058;-64
2022/10/20 07:14:42;;;;;;;0.82;0.40;;;;;;;;;;5092881;28;20385;-64
2022/10/20 07:17:11;;;;;;;2.15;0.40;;;;;;;;;;5092690;28;20086;-63
2022/10/20 07:19:41;;;;;;;1.83;1.73;;;;;;;;;;5042420;28;20158;-64
2022/10/20 07:22:12;;;;;;;1.05;0.70;;;;;;;;;;5044092;28;20408;-64
2022/10/20 07:24:42;;;;;;;0.98;0.50;;;;;;;;;;5042816;28;20055;-64
2022/10/20 07:27:12;;;;;;;1.88;1.08;;;;;;;;;;5092740;28;20056;-64
2022/10/20 07:29:41;;;;;;;2.15;0.57;;;;;;;;;;5092927;28;20048;-64
2022/10/20 07:32:11;;;;;;;0.60;0.32;;;;;;;;;;5052298;28;20065;-64
2022/10/20 07:34:41;;;;;;;1.92;0.50;;;;;;;;;;5019082;28;20052;-64
2022/10/20 07:37:11;;;;;;;3.25;0.63;;;;;;;;;;5052466;28;20436;-65
2022/10/20 07:39:41;;;;;;;1.17;0.45;;;;;;;;;;5052183;28;20547;-65
2022/10/20 07:42:11;;;;;;;0.75;0.45;;;;;;;;;;5052325;28;20536;-64
2022/10/20 07:44:41;;;;;;;1.70;0.65;;;;;;;;;;4995667;28;20072;-64
2022/10/20 07:47:11;;;;;;;2.20;0.73;;;;;;;;;;5012528;28;20089;-65
2022/10/20 07:49:40;;;;;;;4.40;0.40;;;;;;;;;;5012244;28;20081;-64
2022/10/20 07:52:15;;;;;;;1.30;0.75;;;;;;;;;;5023626;28;20153;-64
2022/10/20 07:54:44;;;;;;;;;;;;;;;;;;5052712;28;20056;-64
2022/10/20 07:57:14;;;;;;;2.28;0.50;;;;;;;;;;5031761;28;19921;-65
2022/10/20 07:59:44;;;;;;;3.13;0.70;;;;;;;;;;5011689;28;20077;-65
2022/10/20 08:02:15;;;;;;;2.53;0.88;;;;;;;;;;5012164;28;20073;-64
2022/10/20 08:04:45;;;;;;;1.35;0.63;;;;;;;;;;4995373;28;20510;-65
2022/10/20 08:07:16;;;;;;;2.35;0.47;;;;;;;;;;5012098;28;20188;-65
2022/10/20 08:09:46;;;;;;;2.33;0.82;;;;;;;;;;5024488;28;20053;-65
2022/10/20 08:12:15;;;;;;;1.35;0.68;;;;;;;;;;5051785;28;20546;-64
2022/10/20 08:14:46;;;;;;;1.40;0.70;;;;;;;;;;5051566;28;20540;-65
2022/10/20 08:17:25;;;;;;;3.03;0.90;;;;;;;;;;5051537;28;20057;-65
2022/10/20 08:19:55;;;;;;;1.42;0.80;;;;;;;;;;5034779;28;20060;-65
2022/10/20 08:22:27;;;;;;;;;;;;;;;;;;5063109;28;20066;-65
2022/10/20 08:24:57;;;;;;;2.15;0.57;;;;;;;;;;5071410;28;19921;-65
2022/10/20 08:27:27;;;;;;;1.33;0.50;;;;;;;;;;5071471;28;20055;-66
2022/10/20 08:29:57;;;;;;;0.90;0.43;;;;;;;;;;5054194;28;20447;-65
2022/10/20 08:32:40;;;;;;;2.25;0.63;;;;;;;;;;5071203;28;20044;-65
2022/10/20 08:35:10;;;;;;;1.10;0.65;;;;;;;;;;5040954;28;20044;-65
2022/10/20 08:37:40;;;;;;;2.28;0.82;;;;;;;;;;5076078;28;20079;-66
2022/10/20 08:40:24;;;;;;;1.30;0.68;;;;;;;;;;5050846;28;20049;-66
2022/10/20 08:42:54;;;;;;;3.17;0.70;;;;;;;;;;5051078;28;20053;-65
2022/10/20 08:45:27;;;;;;;1.65;0.68;;;;;;;;;;5051079;28;20060;-66
2022/10/20 08:48:02;;;;;;;0.98;0.68;;;;;;;;;;5017791;28;20104;-65
2022/10/20 08:50:34;;;;;;;3.38;1.23;;;;;;;;;;5051001;28;20060;-66
2022/10/20 08:53:04;;;;;;;1.60;0.80;;;;;;;;;;5034605;28;20048;-65
2022/10/20 08:55:34;;;;;;;1.67;0.77;;;;;;;;;;5034676;28;20053;-65
2022/10/20 08:58:10;;;;;;;1.88;0.82;;;;;;;;;;5050894;28;20064;-65
2022/10/20 09:00:43;;;;;;;1.77;0.90;;;;;;;;;;5050896;28;20048;-65
2022/10/20 09:03:17;;;;;;;1.88;0.70;;;;;;;;;;5050525;28;20057;-65
2022/10/20 09:05:55;;;;;;;3.13;1.13;;;;;;;;;;5001167;28;20064;-66
2022/10/20 09:08:29;;;;;;;3.92;0.93;;;;;;;;;;5050586;28;20650;-65
2022/10/20 09:11:01;;;;;;;2.22;0.85;;;;;;;;;;5050624;28;20057;-65
2022/10/20 09:13:33;;;;;;;1.70;0.85;;;;;;;;;;5050738;28;20052;-68
2022/10/20 09:16:37;;;;;;;2.03;1.00;;;;;;;;;;5034200;28;20052;-67
2022/10/20 09:19:18;;;;;;;3.78;1.00;;;;;;;;;;5113289;28;20040;-66
2022/10/20 09:21:51;;;;;;;;;;;;;;;;;;5113808;28;20047;-66
2022/10/20 09:24:26;;;;;;;1.75;0.88;;;;;;;;;;5113302;28;19919;-66
2022/10/20 09:27:15;;;;;;;2.05;0.82;;;;;;;;;;5113119;28;20047;-66
2022/10/20 09:29:45;;;;;;;2.80;0.90;;;;;;;;;;5113379;28;20046;-65
2022/10/20 09:32:30;;;;;;;3.75;1.08;;;;;;;;;;5113172;28;20051;-66
2022/10/20 09:35:33;;;;;;;1.58;0.73;;;;;;;;;;5077130;28;20055;-65
2022/10/20 09:38:09;;;;;;;2.38;1.45;;;;;;;;;;5040227;28;20044;-65
2022/10/20 09:41:03;;;;;;;3.67;0.90;;;;;;;;;;5039667;28;20050;-65
2022/10/20 09:43:33;;;;;;;2.70;1.10;;;;;;;;;;5039932;28;20550;-66
2022/10/20 09:46:10;;;;;;;2.08;1.00;;;;;;;;;;5090260;28;20063;-66
2022/10/20 09:48:47;;;;;;;1.70;1.20;;;;;;;;;;5090068;28;20044;-66
2022/10/20 09:51:25;;;;;;;2.70;0.95;;;;;;;;;;5069679;28;20040;-66
2022/10/20 09:54:04;;;;;;;;;;;;;;;;;;5069936;28;20067;-66
2022/10/20 09:56:40;;;;;;;2.65;0.82;;;;;;;;;;5069544;28;19927;-67
2022/10/20 09:59:31;;;;;;;2.75;1.02;;;;;;;;;;5069740;28;20044;-65
2022/10/20 10:02:22;;;;;;;2.25;0.93;;;;;;;;;;5036397;28;20061;-66
2022/10/20 10:04:54;;;;;;;2.40;1.30;;;;;;;;;;5069667;28;20396;-66
2022/10/20 10:07:25;;;;;;;;;;;;;;;;;;5053217;28;20055;-67
2022/10/20 10:10:06;;;;;;;3.03;1.10;;;;;;;;;;5069524;28;20380;-67
2022/10/20 10:12:36;;;;;;;2.35;1.02;;;;;;;;;;5069582;28;20052;-67
2022/10/20 10:15:21;;;;;;;8.52;5.63;;;;;;;;;;4997264;28;20047;-68
2022/10/20 10:17:52;;;;;;;4.38;1.52;;;;;;;;;;5093203;28;20051;-68
2022/10/20 10:20:22;;;;;;;2.63;1.25;;;;;;;;;;5059716;28;20052;-67
2022/10/20 10:23:05;;;;;;;4.60;1.08;;;;;;;;;;5076082;28;20056;-68
2022/10/20 10:25:35;;;;;;;4.88;1.17;;;;;;;;;;5093357;28;20071;-68
2022/10/20 10:28:19;;;;;;;2.47;1.00;;;;;;;;;;5110416;28;20087;-68
2022/10/20 10:31:10;;;;;;;2.90;1.70;;;;;;;;;;5112326;28;20052;-68
2022/10/20 10:33:40;;;;;;;3.80;1.60;;;;;;;;;;5076424;28;20503;-67
2022/10/20 10:36:34;;;;;;;4.75;1.83;;;;;;;;;;5059379;28;20084;-67
2022/10/20 10:39:06;;;;;;;2.95;1.38;;;;;;;;;;5077302;28;20399;-67
2022/10/20 10:41:56;;;;;;;5.13;1.90;;;;;;;;;;5112269;28;20499;-67
2022/10/20 10:44:54;;;;;;;5.18;1.88;;;;;;;;;;5112141;28;20105;-67
2022/10/20 10:47:54;;;;;;;5.53;2.05;;;;;;;;;;5112282;28;20070;-68
2022/10/20 10:50:34;;;;;;;4.10;2.00;;;;;;;;;;5089127;28;20443;-68
2022/10/20 10:53:36;;;;;;;4.05;1.73;;;;;;;;;;5089348;28;20415;-67
2022/10/20 10:56:14;;;;;;;8.90;2.60;;;;;;;;;;5089301;28;20055;-68
2022/10/20 10:59:04;;;;;;;8.05;2.72;;;;;;;;;;5039477;28;20079;-68
2022/10/20 11:02:08;;;;;;;5.53;1.65;;;;;;;;;;5055560;28;20526;-67
2022/10/20 11:05:02;;;;;;;3.28;1.75;;;;;;;;;;5048746;28;20096;-67
2022/10/20 11:07:56;;;;;;;4.03;1.70;;;;;;;;;;5032760;28;20523;-67
2022/10/20 11:10:44;;;;;;;3.63;1.58;;;;;;;;;;5049036;28;20061;-68
2022/10/20 11:13:25;;;;;;;4.95;1.60;;;;;;;;;;5049022;28;20149;-67
2022/10/20 11:15:58;;;;;;;3.88;1.67;;;;;;;;;;5048526;28;20053;-67
2022/10/20 11:18:54;;;;;;;2.42;1.73;;;;;;;;;;5048890;28;20064;-68
2022/10/20 11:22:00;;;;;;;5.10;1.48;;;;;;;;;;5048731;28;20053;-68
2022/10/20 11:24:52;;;;;;;6.30;2.25;;;;;;;;;;5048866;28;20044;-68
2022/10/20 11:27:24;;;;;;;;;;;;;;;;;;5060840;28;20407;-68
2022/10/20 11:30:08;;;;;;;4.05;1.48;;;;;;;;;;5092511;28;19920;-68
2022/10/20 11:32:46;;;;;;;4.03;1.80;;;;;;;;;;5046936;28;20411;-68
2022/10/20 11:35:16;;;;;;;;;;;;;;;;;;5092961;28;20052;-68
2022/10/20 11:37:55;;;;;;;5.20;2.22;;;;;;;;;;5075598;28;20364;-68
2022/10/20 11:40:34;;;;;;;6.90;2.15;;;;;;;;;;5092393;28;20044;-68
2022/10/20 11:43:26;;;;;;;3.30;1.42;;;;;;;;;;5058932;28;20048;-67
2022/10/20 11:46:36;;;;;;;3.92;1.52;;;;;;;;;;5112753;28;20040;-68
2022/10/20 11:49:33;;;;;;;3.53;1.98;;;;;;;;;;4941044;28;20575;-68
2022/10/20 11:52:06;;;;;;;3.28;1.73;;;;;;;;;;4973526;28;20511;-68
2022/10/20 11:55:03;;;;;;;5.20;1.95;;;;;;;;;;4924997;28;20160;-67
2022/10/20 11:57:54;;;;;;;6.40;1.92;;;;;;;;;;4934887;29;20175;-68
2022/10/20 12:01:03;;;;;;;3.40;2.03;;;;;;;;;;4934628;29;20055;-67
2022/10/20 12:03:54;;;;;;;6.32;1.55;;;;;;;;;;4919074;29;20076;-67
2022/10/20 12:06:37;;;;;;;4.00;1.75;;;;;;;;;;4934454;29;20068;-69
2022/10/20 12:09:40;;;;;;;2.97;1.58;;;;;;;;;;4934447;29;20047;-67
2022/10/20 12:12:37;;;;;;;3.25;1.52;;;;;;;;;;4934416;29;20051;-67
2022/10/20 12:15:26;;;;;;;3.50;2.05;;;;;;;;;;4902324;29;20052;-68
2022/10/20 12:18:15;;;;;;;3.83;1.70;;;;;;;;;;4934207;29;20070;-68
2022/10/20 12:20:52;;;;;;;7.63;1.80;;;;;;;;;;4917947;29;20051;-68
2022/10/20 12:23:44;;;;;;;6.05;1.73;;;;;;;;;;4934139;29;20051;-69
2022/10/20 12:26:31;;;;;;;4.38;1.65;;;;;;;;;;4971865;28;20050;-68
2022/10/20 12:29:30;;;;;;;5.72;1.77;;;;;;;;;;5011580;28;20113;-69
2022/10/20 12:32:25;;;;;;;4.82;1.67;;;;;;;;;;5011578;28;20445;-69
2022/10/20 12:34:56;;;;;;;3.30;1.63;;;;;;;;;;5080978;28;20495;-68
2022/10/20 12:37:34;;;;;;;2.97;1.48;;;;;;;;;;5113789;28;20039;-68
2022/10/20 12:40:27;;;;;;;4.95;2.10;;;;;;;;;;5079410;28;20044;-68
2022/10/20 12:42:58;;;;;;;3.38;1.50;;;;;;;;;;4991594;28;20050;-68
2022/10/20 12:45:40;;;;;;;3.72;1.85;;;;;;;;;;4943227;28;20071;-69
2022/10/20 12:48:21;;;;;;;2.20;1.52;;;;;;;;;;4991716;28;20058;-68
2022/10/20 12:50:53;;;;;;;4.60;2.40;;;;;;;;;;4943877;28;20050;-69
2022/10/20 12:53:28;;;;;;;5.97;2.40;;;;;;;;;;4991510;28;20058;-69
2022/10/20 12:56:06;;;;;;;4.45;2.25;;;;;;;;;;4991558;28;20047;-69
2022/10/20 12:58:38;;;;;;;2.97;1.30;;;;;;;;;;4991660;28;20042;-69
2022/10/20 13:01:11;;;;;;;3.25;1.65;;;;;;;;;;4991182;28;20069;-70
2022/10/20 13:03:51;;;;;;;4.57;1.73;;;;;;;;;;4975153;28;20054;-70
2022/10/20 13:06:29;;;;;;;4.07;1.90;;;;;;;;;;4942839;28;20066;-70
2022/10/20 13:09:05;;;;;;;3.47;2.08;;;;;;;;;;5007498;28;20502;-69
2022/10/20 13:11:45;;;;;;;5.00;2.22;;;;;;;;;;4991164;28;20061;-70
2022/10/20 13:14:40;;;;;;;7.47;2.13;;;;;;;;;;4974789;28;20050;-70
2022/10/20 13:17:18;;;;;;;5.53;1.85;;;;;;;;;;4991286;28;20050;-69
2022/10/20 13:19:56;;;;;;;4.80;2.25;;;;;;;;;;5026850;28;20051;-69
2022/10/20 13:22:45;;;;;;;6.63;3.75;;;;;;;;;;5077996;28;20055;-69
2022/10/20 13:25:39;;;;;;;4.45;1.88;;;;;;;;;;5077254;28;20044;-70
2022/10/20 13:28:18;;;;;;;3.75;2.10;;;;;;;;;;5113183;28;20044;-69
2022/10/20 13:30:54;;;;;;;9.15;2.40;;;;;;;;;;5093915;28;20048;-69
2022/10/20 13:34:04;;;;;;;10.02;3.40;;;;;;;;;;5113086;28;20479;-69
2022/10/20 13:36:43;;;;;;;32.50;13.68;;;;;;;;;;5056392;28;20044;-69
2022/10/20 13:39:28;;;;;;;10.88;3.97;;;;;;;;;;5090138;28;20423;-69
2022/10/20 13:42:11;;;;;;;9.45;4.22;;;;;;;;;;5040189;28;20056;-69
2022/10/20 13:45:11;;;;;;;11.05;4.90;;;;;;;;;;5090302;28;20051;-68
2022/10/20 13:48:01;;;;;;;14.27;7.50;;;;;;;;;;4977552;28;20058;-68
2022/10/20 13:50:41;;;;;;;10.40;4.35;;;;;;;;;;5010061;28;20046;-68
2022/10/20 13:53:14;;;;;;;5.80;3.17;;;;;;;;;;4993883;28;20498;-68
2022/10/20 13:55:53;;;;;;;8.68;4.80;;;;;;;;;;4990376;28;20062;-68
2022/10/20 13:58:25;;;;;;;8.90;4.40;;;;;;;;;;4957862;28;20046;-70
2022/10/20 14:01:05;;;;;;;7.10;3.72;;;;;;;;;;4990339;28;20061;-70
2022/10/20 14:03:43;;;;;;;5.57;2.30;;;;;;;;;;4990619;28;20043;-71
2022/10/20 14:06:30;;;;;;;4.13;2.22;;;;;;;;;;4942013;28;20050;-70
2022/10/20 14:09:31;;;;;;;6.65;2.05;;;;;;;;;;4990454;28;20046;-68
2022/10/20 14:12:11;;;;;;;2.85;1.67;;;;;;;;;;4990379;28;20057;-68
2022/10/20 14:14:45;;;;;;;5.78;2.47;;;;;;;;;;4987995;28;20062;-68
2022/10/20 14:17:20;;;;;;;6.93;2.47;;;;;;;;;;5010032;28;20061;-70
2022/10/20 14:20:07;;;;;;;9.10;2.75;;;;;;;;;;5009783;28;20065;-69
2022/10/20 14:22:43;;;;;;;5.05;2.40;;;;;;;;;;4961486;28;20509;-69
2022/10/20 14:25:14;;;;;;;4.85;2.28;;;;;;;;;;5064853;28;20048;-70
2022/10/20 14:27:46;;;;;;;3.58;1.92;;;;;;;;;;5072513;28;20514;-72
2022/10/20 14:30:18;;;;;;;4.85;2.13;;;;;;;;;;5089557;28;20075;-70
2022/10/20 14:32:50;;;;;;;5.13;2.05;;;;;;;;;;5089689;28;20056;-67
2022/10/20 14:35:25;;;;;;;5.28;2.20;;;;;;;;;;5089438;28;20047;-67
2022/10/20 14:38:13;;;;;;;4.75;2.13;;;;;;;;;;5089551;28;20052;-68
2022/10/20 14:40:54;;;;;;;4.68;2.03;;;;;;;;;;5089712;28;20052;-67
2022/10/20 14:43:38;;;;;;;7.85;2.53;;;;;;;;;;5089587;28;20059;-68
2022/10/20 14:46:12;;;;;;;6.20;2.47;;;;;;;;;;5073238;28;20111;-67
2022/10/20 14:48:48;;;;;;;3.22;1.20;;;;;;;;;;5072412;28;20423;-68
2022/10/20 14:51:36;;;;;;;2.65;1.35;;;;;;;;;;5089459;28;20044;-67
2022/10/20 14:54:25;;;;;;;3.35;1.70;;;;;;;;;;5089794;28;20443;-67
2022/10/20 14:57:01;;;;;;;3.97;1.42;;;;;;;;;;5055618;28;20773;-67
2022/10/20 14:59:33;;;;;;;5.93;1.50;;;;;;;;;;5089497;28;20063;-68
2022/10/20 15:02:12;;;;;;;3.05;1.60;;;;;;;;;;5093366;28;20040;-67
2022/10/20 15:04:44;;;;;;;3.10;1.30;;;;;;;;;;5081304;28;20048;-68
2022/10/20 15:07:16;;;;;;;2.80;1.33;;;;;;;;;;5096379;28;20047;-67
2022/10/20 15:09:51;;;;;;;2.28;1.00;;;;;;;;;;5097063;28;20499;-67
2022/10/20 15:12:32;;;;;;;3.63;1.48;;;;;;;;;;5093023;28;20048;-66
2022/10/20 15:15:11;;;;;;;1.98;1.17;;;;;;;;;;5019272;28;20444;-65
2022/10/20 15:17:42;;;;;;;;;;;;;;;;;;5020255;28;20053;-65
2022/10/20 15:20:33;;;;;;;4.35;1.23;;;;;;;;;;5003407;28;20304;-65
2022/10/20 15:23:08;;;;;;;2.70;1.30;;;;;;;;;;5035807;28;20386;-64
2022/10/20 15:25:59;;;;;;;3.03;1.42;;;;;;;;;;5052475;28;20052;-65
2022/10/20 15:28:43;;;;;;;4.63;1.10;;;;;;;;;;5052639;28;20048;-62
2022/10/20 15:31:16;;;;;;;4.47;1.02;;;;;;;;;;5032253;28;20053;-63
2022/10/20 15:33:48;;;;;;;7.28;1.10;;;;;;;;;;5032141;28;20049;-63
2022/10/20 15:36:28;;;;;;;1.80;1.02;;;;;;;;;;5032357;28;20061;-62
2022/10/20 15:38:59;;;;;;;1.85;0.80;;;;;;;;;;5032329;28;20057;-62
2022/10/20 15:41:32;;;;;;;2.35;1.35;;;;;;;;;;4983731;28;20049;-63
2022/10/20 15:44:20;;;;;;;2.75;1.08;;;;;;;;;;5016063;28;20521;-63
2022/10/20 15:46:55;;;;;;;1.85;0.85;;;;;;;;;;5032287;28;20049;-62
2022/10/20 15:49:25;;;;;;;1.55;0.80;;;;;;;;;;5037378;28;20057;-62
2022/10/20 15:51:55;;;;;;;2.72;0.88;;;;;;;;;;5043214;28;20068;-63
2022/10/20 15:54:25;;;;;;;1.58;1.00;;;;;;;;;;5092525;28;20048;-63
2022/10/20 15:56:55;;;;;;;2.00;0.70;;;;;;;;;;5092270;28;20515;-63
2022/10/20 15:59:25;;;;;;;17.98;8.02;;;;;;;;;;5092227;28;20048;-64
2022/10/20 16:01:55;;;;;;;3.17;1.20;;;;;;;;;;5075093;28;20446;-64
2022/10/20 16:04:25;;;;;;;7.15;3.40;;;;;;;;;;5058490;28;20060;-63
2022/10/20 16:06:56;;;;;;;6.43;2.42;;;;;;;;;;5051301;28;20489;-63
2022/10/20 16:09:30;;;;;;;7.85;3.30;;;;;;;;;;5051913;28;20056;-64
2022/10/20 16:12:00;;;;;;;2.38;1.08;;;;;;;;;;5091242;28;20094;-64
2022/10/20 16:14:30;;;;;;;2.92;1.23;;;;;;;;;;5091838;28;20048;-65
2022/10/20 16:17:00;;;;;;;3.58;1.30;;;;;;;;;;5051150;28;20049;-65
2022/10/20 16:19:30;;;;;;;3.35;1.17;;;;;;;;;;5051347;28;20053;-65
2022/10/20 16:22:00;;;;;;;4.00;1.13;;;;;;;;;;5051269;28;20048;-65
2022/10/20 16:24:31;;;;;;;2.35;1.23;;;;;;;;;;5051356;28;20057;-64
2022/10/20 16:27:02;;;;;;;2.63;1.33;;;;;;;;;;5051476;28;20041;-64
2022/10/20 16:29:32;;;;;;;5.35;1.60;;;;;;;;;;5051356;28;20049;-63
2022/10/20 16:32:02;;;;;;;2.40;1.23;;;;;;;;;;5051018;28;20167;-65
2022/10/20 16:34:32;;;;;;;3.63;1.33;;;;;;;;;;5051001;28;20058;-63
2022/10/20 16:37:03;;;;;;;4.38;1.20;;;;;;;;;;5051355;28;20049;-64
2022/10/20 16:39:32;;;;;;;4.75;1.63;;;;;;;;;;5051151;28;20053;-64
2022/10/20 16:42:03;;;;;;;2.40;1.08;;;;;;;;;;5051129;28;20061;-64